sensor_id;sensor_type;location;lat;lon;timestamp;temperature;humidity
44069;DHT22;29738;51.234;5.484;2023-03-23T00:01:06;12.80;99.90
44069;DHT22;29738;51.234;5.484;2023-03-23T00:03:32;12.60;99.90
44069;DHT22;29738;51.234;5.484;2023-03-23T00:05:59;12.60;99.90
44069;DHT22;29738;51.234;5.484;2023-03-23T00:08:33;12.60;99.90
44069;DHT22;29738;51.234;5.484;2023-03-23T00:11:06;12.60;99.90
44069;DHT22;29738;51.234;5.484;2023-03-23T00:13:33;12.60;99.90
44069;DHT22;29738;51.234;5.484;2023-03-23T00:15:59;12.60;99.90
44069;DHT22;29738;51.234;5.484;2023-03-23T00:18:26;12.60;99.90
44069;DHT22;29738;51.234;5.484;2023-03-23T00:20:54;12.70;99.90
44069;DHT22;29738;51.234;5.484;2023-03-23T00:23:22;12.60;99.90
44069;DHT22;29738;51.234;5.484;2023-03-23T00:25:50;12.60;99.90
44069;DHT22;29738;51.234;5.484;2023-03-23T00:28:19;12.60;99.90
44069;DHT22;29738;51.234;5.484;2023-03-23T00:30:55;12.60;99.90
44069;DHT22;29738;51.234;5.484;2023-03-23T00:33:28;12.60;99.90
44069;DHT22;29738;51.234;5.484;2023-03-23T00:35:57;12.70;99.90
44069;DHT22;29738;51.234;5.484;2023-03-23T00:38:24;12.70;99.90
44069;DHT22;29738;51.234;5.484;2023-03-23T00:40:50;12.70;99.90
44069;DHT22;29738;51.234;5.484;2023-03-23T00:43:18;12.60;99.90
44069;DHT22;29738;51.234;5.484;2023-03-23T00:45:45;12.60;99.90
44069;DHT22;29738;51.234;5.484;2023-03-23T00:48:19;12.60;99.90
44069;DHT22;29738;51.234;5.484;2023-03-23T00:50:45;12.70;99.90
44069;DHT22;29738;51.234;5.484;2023-03-23T00:53:11;12.60;99.90
44069;DHT22;29738;51.234;5.484;2023-03-23T00:55:37;12.60;99.90
44069;DHT22;29738;51.234;5.484;2023-03-23T00:58:03;12.70;99.90
44069;DHT22;29738;51.234;5.484;2023-03-23T01:00:32;12.60;99.90
44069;DHT22;29738;51.234;5.484;2023-03-23T01:02:58;12.60;99.90
44069;DHT22;29738;51.234;5.484;2023-03-23T01:05:24;12.60;99.90
44069;DHT22;29738;51.234;5.484;2023-03-23T01:07:58;12.60;99.90
44069;DHT22;29738;51.234;5.484;2023-03-23T01:10:24;12.60;99.90
44069;DHT22;29738;51.234;5.484;2023-03-23T01:12:52;12.60;99.90
44069;DHT22;29738;51.234;5.484;2023-03-23T01:15:19;12.60;99.90
44069;DHT22;29738;51.234;5.484;2023-03-23T01:17:45;12.60;99.90
44069;DHT22;29738;51.234;5.484;2023-03-23T01:20:13;12.60;99.90
44069;DHT22;29738;51.234;5.484;2023-03-23T01:22:41;12.70;99.90
44069;DHT22;29738;51.234;5.484;2023-03-23T01:25:10;12.70;99.90
44069;DHT22;29738;51.234;5.484;2023-03-23T01:27:37;12.70;99.90
44069;DHT22;29738;51.234;5.484;2023-03-23T01:30:04;12.70;99.90
44069;DHT22;29738;51.234;5.484;2023-03-23T01:32:31;12.60;99.90
44069;DHT22;29738;51.234;5.484;2023-03-23T01:34:57;12.60;99.90
44069;DHT22;29738;51.234;5.484;2023-03-23T01:37:23;12.70;99.90
44069;DHT22;29738;51.234;5.484;2023-03-23T01:39:53;12.60;99.90
44069;DHT22;29738;51.234;5.484;2023-03-23T01:42:30;12.60;99.90
44069;DHT22;29738;51.234;5.484;2023-03-23T01:48:04;12.60;99.90
44069;DHT22;29738;51.234;5.484;2023-03-23T01:50:40;12.70;99.90
44069;DHT22;29738;51.234;5.484;2023-03-23T01:53:13;12.70;99.90
44069;DHT22;29738;51.234;5.484;2023-03-23T01:55:40;12.70;99.90
44069;DHT22;29738;51.234;5.484;2023-03-23T01:58:08;12.70;99.90
44069;DHT22;29738;51.234;5.484;2023-03-23T02:00:35;12.70;99.90
44069;DHT22;29738;51.234;5.484;2023-03-23T02:03:02;12.70;99.90
44069;DHT22;29738;51.234;5.484;2023-03-23T02:05:32;12.60;99.90
44069;DHT22;29738;51.234;5.484;2023-03-23T02:08:01;12.60;99.90
44069;DHT22;29738;51.234;5.484;2023-03-23T02:10:32;12.60;99.90
44069;DHT22;29738;51.234;5.484;2023-03-23T02:12:59;12.60;99.90
44069;DHT22;29738;51.234;5.484;2023-03-23T02:15:47;12.80;99.90
44069;DHT22;29738;51.234;5.484;2023-03-23T02:28:39;12.60;99.90
44069;DHT22;29738;51.234;5.484;2023-03-23T02:36:50;12.70;99.90
44069;DHT22;29738;51.234;5.484;2023-03-23T02:39:25;12.60;99.90
44069;DHT22;29738;51.234;5.484;2023-03-23T02:41:56;12.50;99.90
44069;DHT22;29738;51.234;5.484;2023-03-23T02:44:24;12.60;99.90
44069;DHT22;29738;51.234;5.484;2023-03-23T02:46:57;12.60;99.90
44069;DHT22;29738;51.234;5.484;2023-03-23T02:49:25;12.50;99.90
44069;DHT22;29738;51.234;5.484;2023-03-23T02:51:53;12.50;99.90
44069;DHT22;29738;51.234;5.484;2023-03-23T02:54:23;12.60;99.90
44069;DHT22;29738;51.234;5.484;2023-03-23T02:56:52;12.50;99.90
44069;DHT22;29738;51.234;5.484;2023-03-23T02:59:19;12.60;99.90
44069;DHT22;29738;51.234;5.484;2023-03-23T03:01:52;12.60;99.90
44069;DHT22;29738;51.234;5.484;2023-03-23T03:04:22;12.60;99.90
44069;DHT22;29738;51.234;5.484;2023-03-23T03:09:59;12.60;99.90
44069;DHT22;29738;51.234;5.484;2023-03-23T03:12:47;12.90;99.90
44069;DHT22;29738;51.234;5.484;2023-03-23T03:20:27;12.70;99.90
44069;DHT22;29738;51.234;5.484;2023-03-23T03:22:55;12.70;99.90
44069;DHT22;29738;51.234;5.484;2023-03-23T03:25:23;12.70;99.90
44069;DHT22;29738;51.234;5.484;2023-03-23T03:27:50;12.80;99.90
44069;DHT22;29738;51.234;5.484;2023-03-23T03:30:22;12.80;99.90
44069;DHT22;29738;51.234;5.484;2023-03-23T03:32:51;12.90;99.90
44069;DHT22;29738;51.234;5.484;2023-03-23T03:35:21;12.90;99.90
44069;DHT22;29738;51.234;5.484;2023-03-23T03:37:47;13.00;99.90
44069;DHT22;29738;51.234;5.484;2023-03-23T03:40:16;13.00;99.90
44069;DHT22;29738;51.234;5.484;2023-03-23T03:42:44;12.90;99.90
44069;DHT22;29738;51.234;5.484;2023-03-23T03:45:16;12.90;99.90
44069;DHT22;29738;51.234;5.484;2023-03-23T03:47:43;12.90;99.90
44069;DHT22;29738;51.234;5.484;2023-03-23T03:50:10;12.90;99.90
44069;DHT22;29738;51.234;5.484;2023-03-23T03:52:36;12.90;99.90
44069;DHT22;29738;51.234;5.484;2023-03-23T03:55:05;13.00;99.90
44069;DHT22;29738;51.234;5.484;2023-03-23T03:57:33;13.00;99.90
44069;DHT22;29738;51.234;5.484;2023-03-23T03:59:59;12.90;99.90
44069;DHT22;29738;51.234;5.484;2023-03-23T04:02:26;12.90;99.90
44069;DHT22;29738;51.234;5.484;2023-03-23T04:04:52;12.90;99.90
44069;DHT22;29738;51.234;5.484;2023-03-23T04:07:21;12.80;99.90
44069;DHT22;29738;51.234;5.484;2023-03-23T04:09:47;12.90;99.90
44069;DHT22;29738;51.234;5.484;2023-03-23T04:12:14;12.90;99.90
44069;DHT22;29738;51.234;5.484;2023-03-23T04:14:40;12.90;99.90
44069;DHT22;29738;51.234;5.484;2023-03-23T04:17:07;12.90;99.90
44069;DHT22;29738;51.234;5.484;2023-03-23T04:19:37;12.90;99.90
44069;DHT22;29738;51.234;5.484;2023-03-23T04:22:04;12.90;99.90
44069;DHT22;29738;51.234;5.484;2023-03-23T04:24:31;12.90;99.90
44069;DHT22;29738;51.234;5.484;2023-03-23T04:26:59;12.90;99.90
44069;DHT22;29738;51.234;5.484;2023-03-23T04:29:25;12.90;99.90
44069;DHT22;29738;51.234;5.484;2023-03-23T04:31:52;12.80;99.90
44069;DHT22;29738;51.234;5.484;2023-03-23T04:34:18;13.10;99.90
44069;DHT22;29738;51.234;5.484;2023-03-23T04:36:45;13.00;99.90
44069;DHT22;29738;51.234;5.484;2023-03-23T04:39:15;12.90;99.90
44069;DHT22;29738;51.234;5.484;2023-03-23T04:41:41;12.80;99.90
44069;DHT22;29738;51.234;5.484;2023-03-23T04:44:07;12.90;99.90
44069;DHT22;29738;51.234;5.484;2023-03-23T04:46:33;12.90;99.90
44069;DHT22;29738;51.234;5.484;2023-03-23T04:49:00;12.90;99.90
44069;DHT22;29738;51.234;5.484;2023-03-23T04:51:27;12.80;99.90
44069;DHT22;29738;51.234;5.484;2023-03-23T04:53:54;12.90;99.90
44069;DHT22;29738;51.234;5.484;2023-03-23T04:56:20;12.90;99.90
44069;DHT22;29738;51.234;5.484;2023-03-23T04:58:47;12.90;99.90
44069;DHT22;29738;51.234;5.484;2023-03-23T05:01:16;12.90;99.90
44069;DHT22;29738;51.234;5.484;2023-03-23T05:03:43;12.70;99.90
44069;DHT22;29738;51.234;5.484;2023-03-23T05:06:10;12.80;99.90
44069;DHT22;29738;51.234;5.484;2023-03-23T05:08:36;12.90;99.90
44069;DHT22;29738;51.234;5.484;2023-03-23T05:11:06;12.80;99.90
44069;DHT22;29738;51.234;5.484;2023-03-23T05:13:32;12.80;99.90
44069;DHT22;29738;51.234;5.484;2023-03-23T05:16:03;12.80;99.90
44069;DHT22;29738;51.234;5.484;2023-03-23T05:18:30;12.90;99.90
44069;DHT22;29738;51.234;5.484;2023-03-23T05:21:00;12.80;99.90
44069;DHT22;29738;51.234;5.484;2023-03-23T05:23:26;12.80;99.90
44069;DHT22;29738;51.234;5.484;2023-03-23T05:25:53;12.80;99.90
44069;DHT22;29738;51.234;5.484;2023-03-23T05:28:20;12.80;99.90
44069;DHT22;29738;51.234;5.484;2023-03-23T05:30:47;12.70;99.90
44069;DHT22;29738;51.234;5.484;2023-03-23T05:33:14;12.80;99.90
44069;DHT22;29738;51.234;5.484;2023-03-23T05:35:40;12.80;99.90
44069;DHT22;29738;51.234;5.484;2023-03-23T05:38:07;12.70;99.90
44069;DHT22;29738;51.234;5.484;2023-03-23T05:40:33;12.80;99.90
44069;DHT22;29738;51.234;5.484;2023-03-23T05:42:59;12.70;99.90
44069;DHT22;29738;51.234;5.484;2023-03-23T05:45:28;12.80;99.90
44069;DHT22;29738;51.234;5.484;2023-03-23T05:47:54;12.70;99.90
44069;DHT22;29738;51.234;5.484;2023-03-23T05:50:20;12.70;99.90
44069;DHT22;29738;51.234;5.484;2023-03-23T05:52:47;12.70;99.90
44069;DHT22;29738;51.234;5.484;2023-03-23T05:55:14;12.60;99.90
44069;DHT22;29738;51.234;5.484;2023-03-23T05:57:40;12.50;99.90
44069;DHT22;29738;51.234;5.484;2023-03-23T06:00:07;12.60;99.90
44069;DHT22;29738;51.234;5.484;2023-03-23T06:02:40;12.50;99.90
44069;DHT22;29738;51.234;5.484;2023-03-23T06:05:10;12.70;99.90
44069;DHT22;29738;51.234;5.484;2023-03-23T06:07:36;12.60;99.90
44069;DHT22;29738;51.234;5.484;2023-03-23T06:10:04;12.60;99.90
44069;DHT22;29738;51.234;5.484;2023-03-23T06:12:31;12.50;99.90
44069;DHT22;29738;51.234;5.484;2023-03-23T06:14:57;12.50;99.90
44069;DHT22;29738;51.234;5.484;2023-03-23T06:17:23;12.60;99.90
44069;DHT22;29738;51.234;5.484;2023-03-23T06:19:49;12.50;99.90
44069;DHT22;29738;51.234;5.484;2023-03-23T06:22:17;12.60;99.90
44069;DHT22;29738;51.234;5.484;2023-03-23T06:24:44;12.60;99.90
44069;DHT22;29738;51.234;5.484;2023-03-23T06:27:10;12.60;99.90
44069;DHT22;29738;51.234;5.484;2023-03-23T06:29:36;12.50;99.90
44069;DHT22;29738;51.234;5.484;2023-03-23T06:32:04;12.50;99.90
44069;DHT22;29738;51.234;5.484;2023-03-23T06:34:30;12.70;99.90
44069;DHT22;29738;51.234;5.484;2023-03-23T06:36:58;12.60;99.90
44069;DHT22;29738;51.234;5.484;2023-03-23T06:39:24;12.70;99.90
44069;DHT22;29738;51.234;5.484;2023-03-23T06:41:50;12.70;99.90
44069;DHT22;29738;51.234;5.484;2023-03-23T06:44:17;12.60;99.90
44069;DHT22;29738;51.234;5.484;2023-03-23T06:46:43;12.70;99.90
44069;DHT22;29738;51.234;5.484;2023-03-23T06:49:09;12.60;99.90
44069;DHT22;29738;51.234;5.484;2023-03-23T06:51:36;12.70;99.90
44069;DHT22;29738;51.234;5.484;2023-03-23T06:54:03;12.60;99.90
44069;DHT22;29738;51.234;5.484;2023-03-23T06:56:29;12.60;99.90
44069;DHT22;29738;51.234;5.484;2023-03-23T06:58:55;12.60;99.90
44069;DHT22;29738;51.234;5.484;2023-03-23T07:01:21;12.70;99.90
44069;DHT22;29738;51.234;5.484;2023-03-23T07:03:48;12.70;99.90
44069;DHT22;29738;51.234;5.484;2023-03-23T07:06:14;12.70;99.90
44069;DHT22;29738;51.234;5.484;2023-03-23T07:08:42;12.60;99.90
44069;DHT22;29738;51.234;5.484;2023-03-23T07:11:08;12.80;99.90
44069;DHT22;29738;51.234;5.484;2023-03-23T07:13:35;12.40;99.90
44069;DHT22;29738;51.234;5.484;2023-03-23T07:16:04;12.70;99.90
44069;DHT22;29738;51.234;5.484;2023-03-23T07:18:32;12.70;99.90
44069;DHT22;29738;51.234;5.484;2023-03-23T07:20:58;12.70;99.90
44069;DHT22;29738;51.234;5.484;2023-03-23T07:23:24;12.70;99.90
44069;DHT22;29738;51.234;5.484;2023-03-23T07:25:54;12.80;99.90
44069;DHT22;29738;51.234;5.484;2023-03-23T07:28:20;12.70;99.90
44069;DHT22;29738;51.234;5.484;2023-03-23T07:30:46;12.70;99.90
44069;DHT22;29738;51.234;5.484;2023-03-23T07:33:13;12.80;99.90
44069;DHT22;29738;51.234;5.484;2023-03-23T07:35:39;12.80;99.90
44069;DHT22;29738;51.234;5.484;2023-03-23T07:38:06;12.80;99.90
44069;DHT22;29738;51.234;5.484;2023-03-23T07:40:32;12.90;99.90
44069;DHT22;29738;51.234;5.484;2023-03-23T07:42:59;13.00;99.90
44069;DHT22;29738;51.234;5.484;2023-03-23T07:45:26;12.90;99.90
44069;DHT22;29738;51.234;5.484;2023-03-23T07:47:52;13.00;99.90
44069;DHT22;29738;51.234;5.484;2023-03-23T07:50:19;12.70;99.90
44069;DHT22;29738;51.234;5.484;2023-03-23T07:52:51;12.80;99.90
44069;DHT22;29738;51.234;5.484;2023-03-23T07:55:19;12.60;99.90
44069;DHT22;29738;51.234;5.484;2023-03-23T07:57:46;12.70;99.90
44069;DHT22;29738;51.234;5.484;2023-03-23T08:00:14;12.50;99.90
44069;DHT22;29738;51.234;5.484;2023-03-23T08:02:46;12.20;99.90
44069;DHT22;29738;51.234;5.484;2023-03-23T08:05:12;12.00;99.90
44069;DHT22;29738;51.234;5.484;2023-03-23T08:07:39;11.80;99.90
44069;DHT22;29738;51.234;5.484;2023-03-23T08:10:07;11.60;99.90
44069;DHT22;29738;51.234;5.484;2023-03-23T08:12:39;11.60;99.90
44069;DHT22;29738;51.234;5.484;2023-03-23T08:15:07;11.40;99.90
44069;DHT22;29738;51.234;5.484;2023-03-23T08:17:35;11.30;99.90
44069;DHT22;29738;51.234;5.484;2023-03-23T08:20:02;11.20;99.90
44069;DHT22;29738;51.234;5.484;2023-03-23T08:22:34;11.10;99.90
44069;DHT22;29738;51.234;5.484;2023-03-23T08:25:02;10.90;99.90
44069;DHT22;29738;51.234;5.484;2023-03-23T08:27:29;10.80;99.90
44069;DHT22;29738;51.234;5.484;2023-03-23T08:29:55;10.80;99.90
44069;DHT22;29738;51.234;5.484;2023-03-23T08:32:21;10.60;99.90
44069;DHT22;29738;51.234;5.484;2023-03-23T08:34:48;10.50;99.90
44069;DHT22;29738;51.234;5.484;2023-03-23T08:37:17;10.60;99.90
44069;DHT22;29738;51.234;5.484;2023-03-23T08:39:43;10.60;99.90
44069;DHT22;29738;51.234;5.484;2023-03-23T08:42:10;10.50;99.90
44069;DHT22;29738;51.234;5.484;2023-03-23T08:44:39;10.50;99.90
44069;DHT22;29738;51.234;5.484;2023-03-23T08:47:06;10.50;99.90
44069;DHT22;29738;51.234;5.484;2023-03-23T08:49:32;10.60;99.90
44069;DHT22;29738;51.234;5.484;2023-03-23T08:52:00;10.60;99.90
44069;DHT22;29738;51.234;5.484;2023-03-23T08:54:26;10.60;99.90
44069;DHT22;29738;51.234;5.484;2023-03-23T08:56:52;10.60;99.90
44069;DHT22;29738;51.234;5.484;2023-03-23T08:59:18;10.70;99.90
44069;DHT22;29738;51.234;5.484;2023-03-23T09:01:47;10.80;99.90
44069;DHT22;29738;51.234;5.484;2023-03-23T09:04:13;10.90;99.90
44069;DHT22;29738;51.234;5.484;2023-03-23T09:06:40;11.00;99.90
44069;DHT22;29738;51.234;5.484;2023-03-23T09:09:06;11.10;99.90
44069;DHT22;29738;51.234;5.484;2023-03-23T09:11:36;11.10;99.90
44069;DHT22;29738;51.234;5.484;2023-03-23T09:14:06;11.20;99.90
44069;DHT22;29738;51.234;5.484;2023-03-23T09:16:33;11.20;99.90
44069;DHT22;29738;51.234;5.484;2023-03-23T09:18:59;11.10;99.90
44069;DHT22;29738;51.234;5.484;2023-03-23T09:21:26;11.00;99.90
44069;DHT22;29738;51.234;5.484;2023-03-23T09:23:53;11.30;99.90
44069;DHT22;29738;51.234;5.484;2023-03-23T09:26:22;11.60;99.90
44069;DHT22;29738;51.234;5.484;2023-03-23T09:28:48;11.60;99.90
44069;DHT22;29738;51.234;5.484;2023-03-23T09:31:14;11.60;99.90
44069;DHT22;29738;51.234;5.484;2023-03-23T09:33:43;11.90;99.90
44069;DHT22;29738;51.234;5.484;2023-03-23T09:36:10;11.80;99.90
44069;DHT22;29738;51.234;5.484;2023-03-23T09:38:38;11.70;99.90
44069;DHT22;29738;51.234;5.484;2023-03-23T09:49:24;11.90;99.90
44069;DHT22;29738;51.234;5.484;2023-03-23T09:51:59;12.20;99.90
44069;DHT22;29738;51.234;5.484;2023-03-23T09:54:36;12.50;99.90
44069;DHT22;29738;51.234;5.484;2023-03-23T09:57:03;12.60;99.90
44069;DHT22;29738;51.234;5.484;2023-03-23T09:59:51;12.70;99.90
44069;DHT22;29738;51.234;5.484;2023-03-23T10:02:24;12.50;99.90
44069;DHT22;29738;51.234;5.484;2023-03-23T10:04:55;12.50;99.90
44069;DHT22;29738;51.234;5.484;2023-03-23T10:07:24;12.20;99.90
44069;DHT22;29738;51.234;5.484;2023-03-23T10:09:59;12.00;99.90
44069;DHT22;29738;51.234;5.484;2023-03-23T10:12:49;12.00;99.90
44069;DHT22;29738;51.234;5.484;2023-03-23T10:15:20;11.90;99.90
44069;DHT22;29738;51.234;5.484;2023-03-23T10:17:58;12.10;99.90
44069;DHT22;29738;51.234;5.484;2023-03-23T10:20:32;12.10;99.90
44069;DHT22;29738;51.234;5.484;2023-03-23T10:23:43;12.10;99.90
44069;DHT22;29738;51.234;5.484;2023-03-23T10:26:51;12.20;99.90
44069;DHT22;29738;51.234;5.484;2023-03-23T10:29:26;12.30;99.90
44069;DHT22;29738;51.234;5.484;2023-03-23T10:32:21;12.30;99.90
44069;DHT22;29738;51.234;5.484;2023-03-23T10:34:57;12.40;99.90
44069;DHT22;29738;51.234;5.484;2023-03-23T10:37:32;12.40;99.90
44069;DHT22;29738;51.234;5.484;2023-03-23T10:40:00;12.40;99.90
44069;DHT22;29738;51.234;5.484;2023-03-23T10:42:32;12.40;99.90
44069;DHT22;29738;51.234;5.484;2023-03-23T10:45:00;12.50;99.90
44069;DHT22;29738;51.234;5.484;2023-03-23T10:47:27;12.60;99.90
44069;DHT22;29738;51.234;5.484;2023-03-23T10:49:58;12.60;99.90
44069;DHT22;29738;51.234;5.484;2023-03-23T10:52:35;12.50;99.90
44069;DHT22;29738;51.234;5.484;2023-03-23T10:55:04;12.70;99.90
44069;DHT22;29738;51.234;5.484;2023-03-23T10:57:35;12.90;99.90
44069;DHT22;29738;51.234;5.484;2023-03-23T11:00:07;13.10;99.90
44069;DHT22;29738;51.234;5.484;2023-03-23T11:02:39;13.20;99.90
44069;DHT22;29738;51.234;5.484;2023-03-23T11:05:16;13.20;99.90
44069;DHT22;29738;51.234;5.484;2023-03-23T11:07:52;13.20;99.90
44069;DHT22;29738;51.234;5.484;2023-03-23T11:10:27;13.40;99.90
44069;DHT22;29738;51.234;5.484;2023-03-23T11:12:58;13.40;99.90
44069;DHT22;29738;51.234;5.484;2023-03-23T11:15:34;13.60;99.90
44069;DHT22;29738;51.234;5.484;2023-03-23T11:18:09;13.60;99.90
44069;DHT22;29738;51.234;5.484;2023-03-23T11:20:46;13.40;99.90
44069;DHT22;29738;51.234;5.484;2023-03-23T11:23:24;13.40;99.90
44069;DHT22;29738;51.234;5.484;2023-03-23T11:26:21;13.40;99.90
44069;DHT22;29738;51.234;5.484;2023-03-23T11:29:02;13.40;99.90
44069;DHT22;29738;51.234;5.484;2023-03-23T11:31:38;13.50;99.90
44069;DHT22;29738;51.234;5.484;2023-03-23T11:34:13;13.40;99.90
44069;DHT22;29738;51.234;5.484;2023-03-23T11:36:49;13.30;99.90
44069;DHT22;29738;51.234;5.484;2023-03-23T11:41:48;13.70;99.90
44069;DHT22;29738;51.234;5.484;2023-03-23T11:44:15;14.00;99.90
44069;DHT22;29738;51.234;5.484;2023-03-23T11:47:04;14.10;99.90
44069;DHT22;29738;51.234;5.484;2023-03-23T11:55:32;14.30;99.90
44069;DHT22;29738;51.234;5.484;2023-03-23T11:58:16;14.30;99.90
44069;DHT22;29738;51.234;5.484;2023-03-23T12:01:05;14.20;99.90
44069;DHT22;29738;51.234;5.484;2023-03-23T12:03:58;14.10;99.90
44069;DHT22;29738;51.234;5.484;2023-03-23T12:18:09;14.30;99.90
44069;DHT22;29738;51.234;5.484;2023-03-23T12:26:30;15.30;99.90
44069;DHT22;29738;51.234;5.484;2023-03-23T12:34:52;15.20;99.90
44069;DHT22;29738;51.234;5.484;2023-03-23T12:37:48;15.40;99.90
44069;DHT22;29738;51.234;5.484;2023-03-23T12:40:43;15.60;99.90
44069;DHT22;29738;51.234;5.484;2023-03-23T12:43:15;15.70;99.90
44069;DHT22;29738;51.234;5.484;2023-03-23T12:48:44;15.40;99.90
44069;DHT22;29738;51.234;5.484;2023-03-23T12:57:45;15.00;99.90
44069;DHT22;29738;51.234;5.484;2023-03-23T13:00:17;15.00;99.90
44069;DHT22;29738;51.234;5.484;2023-03-23T13:08:01;15.60;99.90
44069;DHT22;29738;51.234;5.484;2023-03-23T13:10:46;15.60;99.90
44069;DHT22;29738;51.234;5.484;2023-03-23T13:13:20;15.80;99.90
44069;DHT22;29738;51.234;5.484;2023-03-23T13:16:11;16.00;99.90
44069;DHT22;29738;51.234;5.484;2023-03-23T13:18:53;16.40;99.90
44069;DHT22;29738;51.234;5.484;2023-03-23T13:21:30;16.30;99.90
44069;DHT22;29738;51.234;5.484;2023-03-23T13:24:03;16.10;99.90
44069;DHT22;29738;51.234;5.484;2023-03-23T13:26:30;16.20;99.90
44069;DHT22;29738;51.234;5.484;2023-03-23T13:29:05;16.40;99.90
44069;DHT22;29738;51.234;5.484;2023-03-23T13:31:41;16.30;99.90
44069;DHT22;29738;51.234;5.484;2023-03-23T13:34:20;16.20;99.90
44069;DHT22;29738;51.234;5.484;2023-03-23T13:36:56;16.10;99.90
44069;DHT22;29738;51.234;5.484;2023-03-23T13:39:29;15.90;99.90
44069;DHT22;29738;51.234;5.484;2023-03-23T13:42:02;16.00;99.90
44069;DHT22;29738;51.234;5.484;2023-03-23T13:49:55;15.90;99.90
44069;DHT22;29738;51.234;5.484;2023-03-23T14:03:03;15.60;99.90
44069;DHT22;29738;51.234;5.484;2023-03-23T14:10:59;16.10;99.90
44069;DHT22;29738;51.234;5.484;2023-03-23T14:13:51;16.00;99.90
44069;DHT22;29738;51.234;5.484;2023-03-23T14:16:38;15.80;99.90
44069;DHT22;29738;51.234;5.484;2023-03-23T14:19:21;15.80;99.90
44069;DHT22;29738;51.234;5.484;2023-03-23T14:21:55;15.70;99.90
44069;DHT22;29738;51.234;5.484;2023-03-23T14:24:29;15.70;99.90
44069;DHT22;29738;51.234;5.484;2023-03-23T14:27:13;15.80;99.90
44069;DHT22;29738;51.234;5.484;2023-03-23T14:29:39;16.10;99.90
44069;DHT22;29738;51.234;5.484;2023-03-23T14:32:08;16.00;99.90
44069;DHT22;29738;51.234;5.484;2023-03-23T14:34:36;15.90;99.90
44069;DHT22;29738;51.234;5.484;2023-03-23T14:37:03;15.60;99.90
44069;DHT22;29738;51.234;5.484;2023-03-23T14:39:33;15.80;99.90
44069;DHT22;29738;51.234;5.484;2023-03-23T14:42:28;15.90;99.90
44069;DHT22;29738;51.234;5.484;2023-03-23T14:44:55;15.90;99.90
44069;DHT22;29738;51.234;5.484;2023-03-23T14:47:29;15.80;99.90
44069;DHT22;29738;51.234;5.484;2023-03-23T14:49:58;16.00;99.90
44069;DHT22;29738;51.234;5.484;2023-03-23T14:52:27;15.70;99.90
44069;DHT22;29738;51.234;5.484;2023-03-23T14:54:54;15.70;99.90
44069;DHT22;29738;51.234;5.484;2023-03-23T14:59:50;16.00;99.90
44069;DHT22;29738;51.234;5.484;2023-03-23T15:02:25;16.10;99.90
44069;DHT22;29738;51.234;5.484;2023-03-23T15:04:56;15.90;99.90
44069;DHT22;29738;51.234;5.484;2023-03-23T15:07:28;15.70;99.90
44069;DHT22;29738;51.234;5.484;2023-03-23T15:09:55;15.80;99.90
44069;DHT22;29738;51.234;5.484;2023-03-23T15:12:27;15.50;99.90
44069;DHT22;29738;51.234;5.484;2023-03-23T15:14:59;15.70;99.90
44069;DHT22;29738;51.234;5.484;2023-03-23T15:17:28;15.50;99.90
44069;DHT22;29738;51.234;5.484;2023-03-23T15:19:55;15.50;99.90
44069;DHT22;29738;51.234;5.484;2023-03-23T15:22:27;15.50;99.90
44069;DHT22;29738;51.234;5.484;2023-03-23T15:27:30;15.20;99.90
44069;DHT22;29738;51.234;5.484;2023-03-23T15:29:59;15.30;99.90
44069;DHT22;29738;51.234;5.484;2023-03-23T15:32:37;15.40;99.90
44069;DHT22;29738;51.234;5.484;2023-03-23T15:35:18;15.40;99.90
44069;DHT22;29738;51.234;5.484;2023-03-23T15:37:57;15.30;99.90
44069;DHT22;29738;51.234;5.484;2023-03-23T15:40:25;15.40;99.90
44069;DHT22;29738;51.234;5.484;2023-03-23T15:43:21;15.60;99.90
44069;DHT22;29738;51.234;5.484;2023-03-23T15:46:00;15.60;99.90
44069;DHT22;29738;51.234;5.484;2023-03-23T15:48:52;15.60;99.90
44069;DHT22;29738;51.234;5.484;2023-03-23T15:51:22;15.70;99.90
44069;DHT22;29738;51.234;5.484;2023-03-23T15:53:50;15.80;99.90
44069;DHT22;29738;51.234;5.484;2023-03-23T15:56:17;15.60;99.90
44069;DHT22;29738;51.234;5.484;2023-03-23T15:58:44;15.50;99.90
44069;DHT22;29738;51.234;5.484;2023-03-23T16:01:17;15.40;99.90
44069;DHT22;29738;51.234;5.484;2023-03-23T16:06:17;15.20;99.90
44069;DHT22;29738;51.234;5.484;2023-03-23T16:08:43;15.10;99.90
44069;DHT22;29738;51.234;5.484;2023-03-23T16:11:14;15.20;99.90
44069;DHT22;29738;51.234;5.484;2023-03-23T16:13:40;15.10;99.90
44069;DHT22;29738;51.234;5.484;2023-03-23T16:16:17;15.00;99.90
44069;DHT22;29738;51.234;5.484;2023-03-23T16:18:43;14.80;99.90
44069;DHT22;29738;51.234;5.484;2023-03-23T16:21:09;14.90;99.90
44069;DHT22;29738;51.234;5.484;2023-03-23T16:23:36;15.00;99.90
44069;DHT22;29738;51.234;5.484;2023-03-23T16:26:02;15.30;99.90
44069;DHT22;29738;51.234;5.484;2023-03-23T16:28:28;15.50;99.90
44069;DHT22;29738;51.234;5.484;2023-03-23T16:30:55;15.50;99.90
44069;DHT22;29738;51.234;5.484;2023-03-23T16:33:21;15.40;99.90
44069;DHT22;29738;51.234;5.484;2023-03-23T16:35:47;15.10;99.90
44069;DHT22;29738;51.234;5.484;2023-03-23T16:38:14;15.10;99.90
44069;DHT22;29738;51.234;5.484;2023-03-23T16:40:45;15.20;99.90
44069;DHT22;29738;51.234;5.484;2023-03-23T16:43:11;15.30;99.90
44069;DHT22;29738;51.234;5.484;2023-03-23T16:45:40;15.30;99.90
44069;DHT22;29738;51.234;5.484;2023-03-23T16:48:07;15.30;99.90
44069;DHT22;29738;51.234;5.484;2023-03-23T16:50:33;15.20;99.90
44069;DHT22;29738;51.234;5.484;2023-03-23T16:53:00;15.10;99.90
44069;DHT22;29738;51.234;5.484;2023-03-23T16:55:26;15.00;99.90
44069;DHT22;29738;51.234;5.484;2023-03-23T16:57:53;14.90;99.90
44069;DHT22;29738;51.234;5.484;2023-03-23T17:00:20;14.80;99.90
44069;DHT22;29738;51.234;5.484;2023-03-23T17:02:50;14.80;99.90
44069;DHT22;29738;51.234;5.484;2023-03-23T17:05:18;14.70;99.90
44069;DHT22;29738;51.234;5.484;2023-03-23T17:07:45;14.80;99.90
44069;DHT22;29738;51.234;5.484;2023-03-23T17:10:12;14.90;99.90
44069;DHT22;29738;51.234;5.484;2023-03-23T17:12:38;14.70;99.90
44069;DHT22;29738;51.234;5.484;2023-03-23T17:15:06;14.70;99.90
44069;DHT22;29738;51.234;5.484;2023-03-23T17:17:33;14.70;99.90
44069;DHT22;29738;51.234;5.484;2023-03-23T17:19:59;14.80;99.90
44069;DHT22;29738;51.234;5.484;2023-03-23T17:22:25;14.70;99.90
44069;DHT22;29738;51.234;5.484;2023-03-23T17:24:52;14.60;99.90
44069;DHT22;29738;51.234;5.484;2023-03-23T17:27:20;14.70;99.90
44069;DHT22;29738;51.234;5.484;2023-03-23T17:29:46;14.70;99.90
44069;DHT22;29738;51.234;5.484;2023-03-23T17:32:13;14.70;99.90
44069;DHT22;29738;51.234;5.484;2023-03-23T17:34:40;14.70;99.90
44069;DHT22;29738;51.234;5.484;2023-03-23T17:37:06;14.60;99.90
44069;DHT22;29738;51.234;5.484;2023-03-23T17:39:33;14.70;99.90